地図

経路データ

SID SEASON NUMBER BASIN SUBBASIN NAME ISO_TIME NATURE LAT LON WMO_WIND WMO_PRES WMO_AGENCY TRACK_TYPE DIST2LAND LANDFALL IFLAG USA_AGENCY USA_ATCF_ID USA_LAT USA_LON USA_RECORD USA_STATUS USA_WIND USA_PRES USA_SSHS USA_R34_NE USA_R34_SE USA_R34_SW USA_R34_NW USA_R50_NE USA_R50_SE USA_R50_SW USA_R50_NW USA_R64_NE USA_R64_SE USA_R64_SW USA_R64_NW USA_POCI USA_ROCI USA_RMW USA_EYE TOKYO_LAT TOKYO_LON TOKYO_GRADE TOKYO_WIND TOKYO_PRES TOKYO_R50_DIR TOKYO_R50_LONG TOKYO_R50_SHORT TOKYO_R30_DIR TOKYO_R30_LONG TOKYO_R30_SHORT TOKYO_LAND CMA_LAT CMA_LON CMA_CAT CMA_WIND CMA_PRES HKO_LAT HKO_LON HKO_CAT HKO_WIND HKO_PRES NEWDELHI_LAT NEWDELHI_LON NEWDELHI_GRADE NEWDELHI_WIND NEWDELHI_PRES NEWDELHI_CI NEWDELHI_DP NEWDELHI_POCI REUNION_LAT REUNION_LON REUNION_TYPE REUNION_WIND REUNION_PRES REUNION_TNUM REUNION_CI REUNION_RMW REUNION_R34_NE REUNION_R34_SE REUNION_R34_SW REUNION_R34_NW REUNION_R50_NE REUNION_R50_SE REUNION_R50_SW REUNION_R50_NW REUNION_R64_NE REUNION_R64_SE REUNION_R64_SW REUNION_R64_NW BOM_LAT BOM_LON BOM_TYPE BOM_WIND BOM_PRES BOM_TNUM BOM_CI BOM_RMW BOM_R34_NE BOM_R34_SE BOM_R34_SW BOM_R34_NW BOM_R50_NE BOM_R50_SE BOM_R50_SW BOM_R50_NW BOM_R64_NE BOM_R64_SE BOM_R64_SW BOM_R64_NW BOM_ROCI BOM_POCI BOM_EYE BOM_POS_METHOD BOM_PRES_METHOD NADI_LAT NADI_LON NADI_CAT NADI_WIND NADI_PRES WELLINGTON_LAT WELLINGTON_LON WELLINGTON_WIND WELLINGTON_PRES DS824_LAT DS824_LON DS824_STAGE DS824_WIND DS824_PRES TD9636_LAT TD9636_LON TD9636_STAGE TD9636_WIND TD9636_PRES TD9635_LAT TD9635_LON TD9635_WIND TD9635_PRES TD9635_ROCI NEUMANN_LAT NEUMANN_LON NEUMANN_CLASS NEUMANN_WIND NEUMANN_PRES MLC_LAT MLC_LON MLC_CLASS MLC_WIND MLC_PRES USA_GUST BOM_GUST BOM_GUST_PER REUNION_GUST REUNION_GUST_PER USA_SEAHGT USA_SEARAD_NE USA_SEARAD_SE USA_SEARAD_SW USA_SEARAD_NW STORM_SPEED STORM_DIR
1996137N13251 1996 39 EP MM NOT_NAMED 1996-05-15 12:00:00 TS 12.8000 -108.700 30 hurdat_epa main 828 823 O_____________ hurdat_epa EP021996 12.8000 -108.700 TD 30 -1 2 96
1996137N13251 1996 39 EP MM NOT_NAMED 1996-05-15 15:00:00 TS 12.7900 -108.607 main 823 815 P_____________ EP021996 12.7900 -108.607 TD 30 -1 2 90
1996137N13251 1996 39 EP MM NOT_NAMED 1996-05-15 18:00:00 TS 12.8000 -108.500 30 hurdat_epa main 815 808 O_____________ hurdat_epa EP021996 12.8000 -108.500 TD 30 -1 2 77
1996137N13251 1996 39 EP MM NOT_NAMED 1996-05-15 21:00:00 TS 12.8425 -108.378 main 808 793 P_____________ EP021996 12.8425 -108.378 TD 30 -1 2 63
1996137N13251 1996 39 EP MM NOT_NAMED 1996-05-16 00:00:00 TS 12.9000 -108.300 30 hurdat_epa main 793 784 O_____________ hurdat_epa EP021996 12.9000 -108.300 TD 30 -1 1 23
1996137N13251 1996 39 EP MM NOT_NAMED 1996-05-16 03:00:00 TS 12.9575 -108.320 main 784 784 P_____________ EP021996 12.9575 -108.320 TD 30 -1 1 317
1996137N13251 1996 39 EP MM NOT_NAMED 1996-05-16 06:00:00 TS 13.0000 -108.400 30 hurdat_epa main 791 791 O_____________ hurdat_epa EP021996 13.0000 -108.400 TD 30 -1 2 286
1996137N13251 1996 39 EP MM NOT_NAMED 1996-05-16 09:00:00 TS 13.0000 -108.478 main 798 798 P_____________ EP021996 13.0000 -108.478 TD 30 -1 2 270
1996137N13251 1996 39 EP MM NOT_NAMED 1996-05-16 12:00:00 TS 13.0000 -108.600 30 hurdat_epa main 803 803 O_____________ hurdat_epa EP021996 13.0000 -108.600 TD 30 -1 3 278
1996137N13251 1996 39 EP MM NOT_NAMED 1996-05-16 15:00:00 TS 13.0425 -108.777 main 814 805 P_____________ EP021996 13.0425 -108.777 TD 30 -1 4 284
1996137N13251 1996 39 EP MM NOT_NAMED 1996-05-16 18:00:00 TS 13.1000 -109.000 30 hurdat_epa main 816 816 O_____________ hurdat_epa EP021996 13.1000 -109.000 TD 30 -1 5 284
1996137N13251 1996 39 EP MM NOT_NAMED 1996-05-16 21:00:00 TS 13.1575 -109.242 main 819 819 P_____________ EP021996 13.1575 -109.242 TD 30 -1 5 282
1996137N13251 1996 39 EP MM NOT_NAMED 1996-05-17 00:00:00 TS 13.2000 -109.500 30 hurdat_epa main 838 838 O_____________ hurdat_epa EP021996 13.2000 -109.500 TD 30 -1 5 277
1996137N13251 1996 39 EP MM NOT_NAMED 1996-05-17 03:00:00 TS 13.2150 -109.758 main 857 857 P_____________ EP021996 13.2150 -109.758 TD 30 -1 5 270
1996137N13251 1996 39 EP MM NOT_NAMED 1996-05-17 06:00:00 TS 13.2000 -110.000 30 hurdat_epa main 871 871 O_____________ hurdat_epa EP021996 13.2000 -110.000 TD 30 -1 4 262
1996137N13251 1996 39 EP MM NOT_NAMED 1996-05-17 09:00:00 TS 13.1574 -110.193 main 885 885 P_____________ EP021996 13.1574 -110.193 TD 30 -1 4 256
1996137N13251 1996 39 EP MM NOT_NAMED 1996-05-17 12:00:00 TS 13.1000 -110.400 30 hurdat_epa main 907 907 O_____________ hurdat_epa EP021996 13.1000 -110.400 TD 30 -1 5 256
1996137N13251 1996 39 EP MM NOT_NAMED 1996-05-17 15:00:00 TS 13.0425 -110.670 main 937 937 P_____________ EP021996 13.0425 -110.670 TD 30 -1 6 260
1996137N13251 1996 39 EP MM NOT_NAMED 1996-05-17 18:00:00 TS 13.0000 -111.000 30 hurdat_epa main 959 959 O_____________ hurdat_epa EP021996 13.0000 -111.000 TD 30 -1 7 265
1996137N13251 1996 39 EP MM NOT_NAMED 1996-05-17 21:00:00 TS 12.9850 -111.393 main 989 989 P_____________ EP021996 12.9850 -111.393 TD 30 -1 8 270
1996137N13251 1996 39 EP MM NOT_NAMED 1996-05-18 00:00:00 TS 13.0000 -111.800 30 hurdat_epa main 1019 1019 O_____________ hurdat_epa EP021996 13.0000 -111.800 TD 30 -1 7 274
1996137N13251 1996 39 EP MM NOT_NAMED 1996-05-18 03:00:00 TS 13.0349 -112.158 main 1050 1050 P_____________ EP021996 13.0349 -112.158 TD 30 -1 7 278
1996137N13251 1996 39 EP MM NOT_NAMED 1996-05-18 06:00:00 TS 13.1000 -112.500 30 hurdat_epa main 1065 1065 O_____________ hurdat_epa EP021996 13.1000 -112.500 TD 30 -1 7 283
1996137N13251 1996 39 EP MM NOT_NAMED 1996-05-18 09:00:00 TS 13.1925 -112.857 main 1088 1088 P_____________ EP021996 13.1925 -112.857 TD 27 -1 7 286
1996137N13251 1996 39 EP MM NOT_NAMED 1996-05-18 12:00:00 TS 13.3000 -113.200 25 hurdat_epa main 1105 1105 O_____________ hurdat_epa EP021996 13.3000 -113.200 TD 25 -1 7 289
1996137N13251 1996 39 EP MM NOT_NAMED 1996-05-18 15:00:00 TS 13.4074 -113.508 main 1122 1118 P_____________ EP021996 13.4074 -113.508 TD 25 -1 6 289
1996137N13251 1996 39 EP MM NOT_NAMED 1996-05-18 18:00:00 TS 13.5000 -113.800 25 hurdat_epa main 1125 1122 O_____________ hurdat_epa EP021996 13.5000 -113.800 TD 25 -1 6 285
1996137N13251 1996 39 EP MM NOT_NAMED 1996-05-18 21:00:00 TS 13.5601 -114.098 main 1126 1126 P_____________ EP021996 13.5601 -114.098 TD 22 -1 6 280
1996137N13251 1996 39 EP MM NOT_NAMED 1996-05-19 00:00:00 TS 13.6000 -114.400 20 hurdat_epa main 1139 O_____________ hurdat_epa EP021996 13.6000 -114.400 TD 20 -1 6 278

IBTrACS Databaseについて

本データベースは、米国NOAAが公開する1842年以降の世界の熱帯低気圧のベストトラックデータアーカイブInternational Best Track Archive for Climate Stewardship (IBTrACS)を、ウェブで閲覧しやすい形式に変換したものです。

最終更新日:2021-10-21